Chita-Kadala Airport
UIAA : now visible

Airfield :











YOU CAN JOIN US ON...

 
LOGIN :

Register | Disclaimer

   EN    FR    IT 

 









Legend :    VFR   Marginal VFR   IFR   Intensive IFR   Very Intensive IFR
Visi :
Ceiling :
>= 8 km
>= 3000ft
5 to 8 km
1000 to 3000 ft
1500m to 5 km
500 to 1000 ft
800 to 1500m
200 to 500 ft
< 800m
< 200 ft
Symbols :   Thunderstorms  Fog  Heavy snow  Heavy precipitations  Wind > 20 kt







- Airport Elevation : 2272 ft
- IATA code : HTA


UIAA - Chita-Kadala

CURRENT METAR :
  • 200630Z VRB02MPS 9999 SCT043CB 29/09 Q1010 R29/CLRD70 NOSIG RMK QFE699/0933

EXPIRED METARs :
  • 200600Z 32003MPS 290V020 9999 SCT043CB 28/09 Q1010 R29/70D NOSIG RMK QFE699/0933
  • 200530Z VRB02MPS 9999 SCT043CB 27/10 Q1011 R29/70D NOSIG RMK QFE699/0933
  • 200500Z VRB01MPS 9999 NSC 27/12 Q1011 R29/CLRD70 NOSIG RMK QFE700/0933
  • 200430Z VRB01MPS 9999 NSC 26/13 Q1011 R29/CLRD70 NOSIG RMK QFE700/0933
  • 200400Z 11002MPS 060V180 9999 NSC 25/14 Q1011 R29/CLRD70 NOSIG RMK QFE700/0933

TAF TAF UIAA
Valid from the 20 at 06:00 until the 21 at 06:00 UTC


200500Z 2006/2106 01003G08MPS 9999 SCT040CB
TEMPO 2006/2012 -TSRA
UIAA FIR / Asia



MET'MAP, your aeronautical weather chart ! - Copyright ORBIFLY December 2007 - Disclaimer

ORBIFLY MET'MAP TEAM :

Programming & Development : Alexandra Zaïnal
Concept & Development : Baudouin d'Aumeries
Co-Development & Prog : Marc-Olivier Méhu
Technical & hardware support : Manuel Goepfert

Contact : metmap@orbifly.com




SOURCES & CREDITS :

   NOAA       Earth
Advisory